• Join FlightAware (Why Join?)
  • Login
  • US Flag 
Gobble Gobble! 
05:09AM EST


 

Airport Tracker/Info


-or-


 

Live Flight TrackerFlight Track Log ✈ SWA1798 ✈ 12-Mar-2014 ✈ KEWR - KSTL

Flight Track Log - Related Links

Times and Time Zones

All times are in EDT time to prevent confusion due to time zone crossing. See the SWA1798 flight status page for this flight to view local times or setup timezone preferences in your user account.

Time Position Orientation Groundspeed Altitude Reporting Facility
EDT Latitude Longitude Course Direction KTS MPH feet Rate Location/Type
07:07AM 40.7000 -74.1667 14° North 156 180 1,100  Level New York TRACON
07:08AM 40.7500 -74.1500 14° North 240 276 2,800 2,280 Climbing New York TRACON
07:09AM 40.7833 -74.2167 303° West 254 292 5,500 3,360 Climbing New York TRACON
07:10AM 40.8000 -74.3000 285° West 257 296 8,800 3,180 Climbing New York TRACON
07:13AM 40.8031 -74.5514 271° West 323 372 15,900 2,400 Climbing New York Center
07:14AM 40.8047 -74.6942 271° West 349 402 17,000 1,500 Climbing New York Center
07:15AM 40.8053 -74.8064 270° West 349 402 18,900 2,400 Climbing New York Center
07:16AM 40.8022 -74.9489 268° West 349 402 21,900 2,640 Climbing New York Center
07:17AM 40.8036 -75.0833 271° West 349 402 24,200 2,100 Climbing New York Center
07:18AM 40.7719 -75.2072 251° West 349 402 26,100 1,860 Climbing New York Center
07:19AM 40.7297 -75.3333 246° West 367 422 28,000 1,980 Climbing New York Center
07:20AM 40.6853 -75.4589 245° Southwest 379 436 30,100 2,100 Climbing New York Center
07:21AM 40.6453 -75.5739 245° Southwest 389 448 32,300 2,160 Climbing New York Center
07:22AM 40.6006 -75.6936 244° Southwest 383 441 34,500 2,280 Climbing New York Center
07:23AM 40.5625 -75.8086 246° West 370 426 36,900 1,620 Climbing New York Center
07:24AM 40.5111 -75.9358 242° Southwest 358 412 37,800 720 Climbing New York Center
07:25AM 40.4706 -76.0528 246° West 358 412 38,400 840 Climbing New York Center
07:26AM 40.4256 -76.1719 244° Southwest 358 412 39,600 780 Climbing New York Center
07:27AM 40.3844 -76.2914 246° West 358 412 40,000 180 Climbing New York Center
07:28AM 40.3764 -76.4189 265° West 350 403 40,000  Level New York Center
07:29AM 40.3744 -76.5469 269° West 355 409 40,000  Level New York Center
07:30AM 40.3739 -76.6831 270° West 355 409 40,000  Level New York Center
07:31AM 40.3717 -76.8083 269° West 360 414 40,000  Level New York Center
07:32AM 40.3672 -76.9386 267° West 360 414 40,000  Level New York Center
07:33AM 40.3664 -77.0694 270° West 365 420 40,000  Level New York Center
07:34AM 40.3647 -77.2822 269° West 357 411 40,000  Level Cleveland Center
07:35AM 40.3617 -77.4103 268° West 357 411 40,000  Level Cleveland Center
07:36AM 40.3583 -77.5642 268° West 356 410 40,000  Level Cleveland Center
07:38AM 40.3556 -77.6928 268° West 356 410 40,000  Level Cleveland Center
07:39AM 40.3517 -77.8225 268° West 356 410 40,000  Level Cleveland Center
07:40AM 40.3486 -77.9489 268° West 355 409 40,000  Level Cleveland Center
07:41AM 40.3447 -78.0764 268° West 355 409 40,000  Level Cleveland Center
07:42AM 40.3419 -78.2036 268° West 354 407 40,000  Level Cleveland Center
07:43AM 40.3375 -78.3292 267° West 353 406 40,000  Level Cleveland Center
07:44AM 40.3347 -78.4550 268° West 351 404 40,000  Level Cleveland Center
07:45AM 40.3294 -78.5800 267° West 349 402 40,000  Level Cleveland Center
07:46AM 40.3253 -78.7311 268° West 349 402 40,000  Level Cleveland Center
07:47AM 40.3203 -78.8564 267° West 348 400 40,000  Level Cleveland Center
07:48AM 40.3161 -78.9839 268° West 349 402 40,000  Level Cleveland Center
07:49AM 40.3128 -79.1117 268° West 353 406 40,000  Level Cleveland Center
07:50AM 40.3072 -79.2394 267° West 351 404 40,000  Level Cleveland Center
07:51AM 40.3022 -79.3706 267° West 351 404 40,000  Level Cleveland Center
07:52AM 40.2969 -79.4983 267° West 351 404 40,000  Level Cleveland Center
07:53AM 40.2917 -79.6281 267° West 353 406 40,000  Level Cleveland Center
07:54AM 40.2861 -79.7556 267° West 352 405 40,000  Level Cleveland Center
07:55AM 40.2803 -79.8850 267° West 354 407 40,000  Level Cleveland Center
07:56AM 40.2747 -80.0153 267° West 354 407 40,000  Level Cleveland Center
07:57AM 40.2689 -80.1469 267° West 355 409 40,000  Level Cleveland Center
07:58AM 40.2633 -80.2781 267° West 355 409 40,000  Level Cleveland Center
07:59AM 40.2567 -80.4078 266° West 355 409 40,000  Level Cleveland Center
08:00AM 40.2503 -80.5606 267° West 354 407 40,000  Level Cleveland Center
08:01AM 40.2439 -80.6900 266° West 354 407 40,000  Level Cleveland Center
08:02AM 40.2364 -80.8178 266° West 351 404 40,000  Level Cleveland Center
08:03AM 40.2294 -80.9469 266° West 352 405 40,000  Level Cleveland Center
08:04AM 40.2239 -81.0597 266° West 352 405 40,000  Level Cleveland Center
08:05AM 40.2175 -81.1647 265° West 353 406 40,000  Level Indianapolis Center
08:06AM 40.2108 -81.2936 266° West 353 406 40,000  Level Indianapolis Center
08:07AM 40.2031 -81.4264 266° West 355 409 40,000  Level Indianapolis Center
08:08AM 40.1958 -81.5567 266° West 355 409 40,000  Level Indianapolis Center
08:09AM 40.1875 -81.6900 265° West 360 414 40,000  Level Indianapolis Center
08:10AM 40.1789 -81.8392 266° West 360 414 40,000  Level Indianapolis Center
08:11AM 40.1706 -81.9714 265° West 362 417 40,000  Level Indianapolis Center
08:12AM 40.1619 -82.1028 265° West 363 418 40,000  Level Indianapolis Center
08:13AM 40.1539 -82.2331 265° West 363 418 40,000  Level Indianapolis Center
08:14AM 40.1453 -82.3644 265° West 363 418 40,000  Level Indianapolis Center
08:15AM 40.1361 -82.4953 265° West 363 418 40,000  Level Indianapolis Center
08:16AM 40.1283 -82.6283 266° West 365 420 40,000  Level Indianapolis Center
08:17AM 40.1192 -82.7619 265° West 367 422 40,000  Level Indianapolis Center
08:18AM 40.1075 -82.9228 265° West 368 423 40,000  Level Indianapolis Center
08:19AM 40.0986 -83.0569 265° West 370 426 40,000  Level Indianapolis Center
08:20AM 40.0894 -83.1903 265° West 370 426 40,000  Level Indianapolis Center
08:21AM 40.0800 -83.3233 265° West 371 427 40,000  Level Indianapolis Center
08:22AM 40.0692 -83.4561 264° West 371 427 40,000  Level Indianapolis Center
08:23AM 40.0594 -83.5875 265° West 371 427 40,000  Level Indianapolis Center
08:24AM 40.0478 -83.7458 265° West 371 427 40,000  Level Indianapolis Center
08:25AM 40.0372 -83.8775 264° West 371 427 40,000  Level Indianapolis Center
08:26AM 40.0264 -84.0081 264° West 369 425 40,000  Level Indianapolis Center
08:27AM 40.0164 -84.1406 264° West 368 423 40,000  Level Indianapolis Center
08:28AM 40.0069 -84.2731 265° West 368 423 40,000  Level Indianapolis Center
08:29AM 39.9942 -84.4053 263° West 368 423 40,000  Level Indianapolis Center
08:30AM 39.9828 -84.5394 264° West 369 425 40,000  Level Indianapolis Center
08:31AM 39.9694 -84.7014 264° West 371 427 40,000  Level Indianapolis Center
08:32AM 39.9569 -84.8350 263° West 372 428 40,000  Level Indianapolis Center
08:33AM 39.9464 -84.9697 264° West 372 428 40,000  Level Indianapolis Center
08:34AM 39.9328 -85.1047 263° West 373 429 40,000  Level Indianapolis Center
08:36AM 39.9228 -85.2361 264° West 372 428 40,000  Level Indianapolis Center
08:37AM 39.9103 -85.3678 263° West 370 426 40,000  Level Indianapolis Center
08:38AM 39.8975 -85.5008 263° West 370 426 40,000  Level Indianapolis Center
08:39AM 39.8858 -85.6358 264° West 372 428 40,000  Level Indianapolis Center
08:40AM 39.8728 -85.7717 263° West 376 433 40,000  Level Indianapolis Center
08:41AM 39.8567 -85.9369 263° West 382 440 40,000  Level Indianapolis Center
08:42AM 39.8453 -86.0628 263° West 383 441 40,000  Level Indianapolis Center
08:43AM 39.8303 -86.2003 262° West 383 441 40,000  Level Indianapolis Center
08:44AM 39.8183 -86.3397 264° West 383 441 40,000  Level Indianapolis Center
08:45AM 39.7883 -86.4742 254° West 384 442 40,000 -360 Level Indianapolis Center
08:46AM 39.7494 -86.6333 252° West 384 442 39,300 -840 Descending Indianapolis Center
08:47AM 39.7175 -86.7606 252° West 377 434 38,400 -960 Descending Indianapolis Center
08:48AM 39.6861 -86.8897 253° West 374 430 37,400 -1,020 Descending Indianapolis Center
08:49AM 39.6536 -87.0200 252° West 375 432 36,400 -960 Descending Indianapolis Center
08:50AM 39.6217 -87.1472 252° West 375 432 35,500 -720 Descending Indianapolis Center
08:51AM 39.5900 -87.2744 252° West 374 430 35,000 -300 Descending Indianapolis Center
08:52AM 39.5567 -87.4000 251° West 373 429 35,000  Level Indianapolis Center
08:53AM 39.5253 -87.5275 252° West 371 427 35,000  Level Indianapolis Center
08:54AM 39.4931 -87.6511 251° West 369 425 35,000  Level Indianapolis Center
08:55AM 39.4617 -87.7772 252° West 369 425 35,000 -900 Level Indianapolis Center
08:56AM 39.4269 -87.9067 251° West 368 423 33,200 -2,460 Descending Indianapolis Center
08:57AM 39.3908 -88.0478 252° West 365 420 30,000 -1,620 Descending Indianapolis Center
08:58AM 39.3603 -88.1697 252° West 363 418 30,000  Level Indianapolis Center
08:59AM 39.3306 -88.2872 252° West 353 406 30,000  Level Indianapolis Center
09:00AM 39.2978 -88.4067 251° West 350 403 30,000  Level Indianapolis Center
09:01AM 39.2658 -88.5269 251° West 350 403 30,000 -120 Level Indianapolis Center
09:02AM 39.2328 -88.6475 251° West 351 404 29,800 -1,200 Descending Indianapolis Center
09:03AM 39.2019 -88.7647 251° West 351 404 27,600 -2,100 Descending Indianapolis Center
09:04AM 39.1697 -88.8775 250° West 344 396 25,500 -2,040 Descending Indianapolis Center
09:05AM 39.1419 -88.9836 251° West 325 374 23,500 -2,100 Descending Indianapolis Center
09:06AM 39.1119 -89.0983 251° West 327 376 21,300 -2,160 Descending Indianapolis Center
09:07AM 39.0814 -89.2150 251° West 335 386 19,100 -2,460 Descending Indianapolis Center
09:08AM 39.0489 -89.3558 253° West 340 391 16,400 -2,220 Descending Indianapolis Center
09:10AM 39.0175 -89.4967 254° West 334 384 14,000 -1,920 Descending Kansas City Center
09:11AM 38.9881 -89.6019 250° West 322 371 12,000 -1,920 Descending Kansas City Center
09:12AM 38.9250 -89.6847 226° Southwest 324 373 10,100 -1,140 Descending Kansas City Center
09:13AM 38.8625 -89.7619 224° Southwest 321 369 9,700 -900 Descending Kansas City Center
09:14AM 38.8058 -89.8333 224° Southwest 303 349 8,300 -1,560 Descending Kansas City Center
09:15AM 38.7500 -89.9053 225° Southwest 291 335 6,600 -1,560 Descending Kansas City Center
09:16AM 38.6936 -89.9764 225° Southwest 288 331 5,200 -1,440 Descending Kansas City Center
09:17AM 38.6356 -90.0433 222° Southwest 285 328 3,700 -840 Descending Kansas City Center
09:18AM 38.6303 -90.1208 265° West 256 295 3,500 -180 Descending Kansas City Center
09:19AM 38.6672 -90.1956 302° West 225 259 3,400 -540 Descending Kansas City Center
09:20AM 38.6933 -90.2481 303° West 198 228 2,400 -840 Descending Kansas City Center
09:21AM 38.7128 -90.2853 304° West 152 175 1,700 -720 Descending Kansas City Center
09:22AM 38.7300 -90.3225 301° West 131 151 1,000 -540 Descending Kansas City Center
09:23AM 38.7508 -90.3636 303° West 127 146 600 -420 Descending Kansas City Center